Sapporo, Japan

1:59 AM JST on August 21, 2014 (GMT +0900)
New Chitose | Change Station
CLOSE
Current Station
Airport
Location: Chitose AB,
Elevation: 98 ft
Nearby Weather Stations

Elev 98 ft 42.77 °N, 141.69 °E | Updated 29 minutes ago

Scattered Clouds
Scattered Clouds
66 °F
Feels Like 66 °F
N
6
Wind Variable Wind from North

Today
High -- | Low -- °F
--% Chance of Precip.
Yesterday
High -- | Low -- °F
Precip. -- in
4:46 AM 6:28 PM
Waning Crescent, 20% visible
Pressure 29.86 in
Visibility 6.2 miles
Clouds Few 1000 ft
Scattered Clouds 2000 ft
Dew Point 64 °F
Humidity 94%
Rainfall 0.00 in
Snow Depth Not available.
UV 0 out of 12
Pollen Not available.
Air Quality Not available.
Flu Activity Not available.
METAR RJCC 201630Z 36005KT 9999 FEW010 SCT020 BKN/// 19/18 Q1011 RMK 1ST010 4CU020 A2986

More Conditions Fewer Conditions

Pressure 29.86 in
Visibility 6.2 miles
Clouds Few 1000 ft
Scattered Clouds 2000 ft
Dew Point 64 °F
Humidity 94%
Rainfall 0.00 in
Snow Depth Not available.
UV 0 out of 12
Pollen Not available.
Air Quality Not available.
Flu Activity Not available.
METAR RJCC 201630Z 36005KT 9999 FEW010 SCT020 BKN/// 19/18 Q1011 RMK 1ST010 4CU020 A2986

More Conditions Fewer Conditions

10-Day Weather Forecast

Almanac

Astronomy

Aug. 21, 2014 Rise Set
Actual Time 4:46 AM JST 6:28 PM JST
Civil Twilight 4:15 AM JST 6:58 PM JST
Nautical Twilight 3:39 AM JST 7:35 PM JST
Astronomical Twilight 2:59 AM JST 8:14 PM JST
Moon 12:40 AM JST (8/21) 3:32 PM JST (8/21)
Length of Visible Light 14h 42m
Length of Day
13h 42m
Tomorrow will be 2m 41s shorter.
Waning Crescent, 20% of the Moon is Illuminated
Aug 20
Waning Crescent
Aug 25
New
Sep 2
First Quarter
Sep 8
Full
Sep 15
Last Quarter

Yesterday's Extremes

Country Highs Country Lows

Community

WunderPhotos

Upload Photos

1,745,691 photos uploaded!

WunderBlogs® & News

Nearby

Snow Depth

Not available.

Earthquake Activity

City Distance Mag. Time & Date
No recent earthquake activity has been reported nearby.
Minimum magnitude displayed is 2.5.

Coastal Water Temperatures

Place Temperature
No Stations Reporting

Nearby Weather Stations